Time;durP1;ratioP1;P1;durP2;ratioP2;P2;SDS_P1;SDS_P2;PMS_P1;PMS_P2;Temp;Humidity;BMP_temperature;BMP_pressure;BME280_temperature;BME280_humidity;BME280_pressure;Samples;Min_cycle;Max_cycle;Signal;HPM_P1;HPM_P2
2022/09/20 00:00:33;;;;;;;;;;;;;;;15.96;69.99;101927.22;1023847;29;654;-78
2022/09/20 00:01:24;;;;;;;;;;;;;;;15.95;69.73;101926.34;1024158;29;658;-78
2022/09/20 00:02:14;;;;;;;;;;;;;;;15.96;69.64;101921.84;1023855;29;1906;-78
2022/09/20 00:03:05;;;;;;;;;;;;;;;15.93;69.90;101922.06;1025066;29;650;-78
2022/09/20 00:03:55;;;;;;;;;;;;;;;15.94;69.93;101923.78;1024491;29;714;-78
2022/09/20 00:04:46;;;;;;;;;;;;;;;15.97;69.37;101928.94;1025155;29;666;-78
2022/09/20 00:05:36;;;;;;;;;;;;;;;15.98;70.02;101922.59;1025003;29;651;-78
2022/09/20 00:06:26;;;;;;;;;;;;;;;15.94;69.41;101921.09;1025026;29;627;-78
2022/09/20 00:07:17;;;;;;;;;;;;;;;15.95;69.89;101920.97;1024969;29;714;-78
2022/09/20 00:08:07;;;;;;;;;;;;;;;15.94;69.75;101924.63;1024983;29;622;-78
2022/09/20 00:08:58;;;;;;;;;;;;;;;15.97;69.68;101923.56;1025112;29;662;-78
2022/09/20 00:09:48;;;;;;;;;;;;;;;15.97;69.69;101923.56;1025043;29;630;-78
2022/09/20 00:10:39;;;;;;;;;;;;;;;15.97;69.87;101924.41;1024040;29;638;-78
2022/09/20 00:11:30;;;;;;;;;;;;;;;15.99;69.75;101927.00;1023933;29;681;-78
2022/09/20 00:12:20;;;;;;;;;;;;;;;15.98;69.44;101926.13;1020743;29;717;-77
2022/09/20 00:13:10;;;;;;;;;;;;;;;15.96;69.44;101922.69;1020593;29;687;-78
2022/09/20 00:14:01;;;;;;;;;;;;;;;15.92;69.88;101929.28;1024578;29;655;-78
2022/09/20 00:14:51;;;;;;;;;;;;;;;15.90;70.11;101924.97;1025012;29;608;-79
2022/09/20 00:15:42;;;;;;;;;;;;;;;15.92;70.23;101925.72;1025004;29;949;-78
2022/09/20 00:16:32;;;;;;;;;;;;;;;15.93;70.48;101927.44;1025028;29;702;-78
2022/09/20 00:17:23;;;;;;;;;;;;;;;15.95;69.82;101922.78;1023838;29;619;-78
2022/09/20 00:18:13;;;;;;;;;;;;;;;15.91;69.94;101930.25;1025020;29;674;-78
2022/09/20 00:19:04;;;;;;;;;;;;;;;15.93;70.15;101925.63;1025035;29;658;-78
2022/09/20 00:19:54;;;;;;;;;;;;;;;15.92;70.37;101926.59;1023921;29;725;-78
2022/09/20 00:20:45;;;;;;;;;;;;;;;15.96;70.53;101928.06;1024950;29;670;-78
2022/09/20 00:21:36;;;;;;;;;;;;;;;15.97;70.20;101926.25;1024982;29;652;-78
2022/09/20 00:22:26;;;;;;;;;;;;;;;16.00;69.94;101923.34;1020685;29;1954;-78
2022/09/20 00:23:17;;;;;;;;;;;;;;;15.98;70.12;101927.97;1020633;29;643;-78
2022/09/20 00:24:07;;;;;;;;;;;;;;;15.97;70.04;101920.88;1025090;28;634;-78
2022/09/20 00:24:58;;;;;;;;;;;;;;;15.97;70.25;101928.94;1025103;29;654;-78
2022/09/20 00:25:48;;;;;;;;;;;;;;;15.97;70.18;101928.94;1023759;29;627;-78
2022/09/20 00:26:39;;;;;;;;;;;;;;;15.94;70.16;101918.41;1025006;29;665;-78
2022/09/20 00:27:30;;;;;;;;;;;;;;;15.88;70.04;101925.06;1024945;29;701;-78
2022/09/20 00:28:20;;;;;;;;;;;;;;;15.89;70.19;101921.41;1024964;29;828;-78
2022/09/20 00:29:12;;;;;;;;;;;;;;;15.93;70.57;101924.75;1024951;29;698;-78
2022/09/20 00:30:03;;;;;;;;;;;;;;;15.92;70.24;101925.72;1024892;29;698;-79
2022/09/20 00:30:53;;;;;;;;;;;;;;;15.92;70.37;101920.34;1024976;29;655;-78
2022/09/20 00:31:43;;;;;;;;;;;;;;;15.94;70.32;101919.25;1025024;29;670;-78
2022/09/20 00:32:34;;;;;;;;;;;;;;;15.95;70.33;101918.28;1025109;29;677;-78
2022/09/20 00:35:06;;;;;;;;;;;;;;;15.92;70.56;101917.66;1023801;29;647;-78
2022/09/20 00:35:46;;;;;;;;;;;;;;;15.90;70.34;101922.28;1023807;29;683;-79
2022/09/20 00:36:37;;;;;;;;;;;;;;;15.88;70.47;101918.84;1025029;29;713;-79
2022/09/20 00:37:27;;;;;;;;;;;;;;;15.92;70.37;101918.53;1023765;29;654;-79
2022/09/20 00:38:18;;;;;;;;;;;;;;;15.93;70.68;101916.69;1023511;29;926;-79
2022/09/20 00:39:08;;;;;;;;;;;;;;;15.94;70.18;101921.94;1024768;29;1136;-79
2022/09/20 00:39:59;;;;;;;;;;;;;;;15.94;70.27;101918.41;1024915;29;674;-79
2022/09/20 00:40:49;;;;;;;;;;;;;;;15.92;70.51;101921.22;1023895;29;662;-79
2022/09/20 00:41:39;;;;;;;;;;;;;;;15.93;70.44;101927.44;1024934;29;718;-79
2022/09/20 00:42:30;;;;;;;;;;;;;;;15.89;70.54;101921.41;1024919;29;1914;-79
2022/09/20 00:43:20;;;;;;;;;;;;;;;15.89;70.29;101928.63;1024968;29;568;-78
2022/09/20 00:44:11;;;;;;;;;;;;;;;15.90;70.20;101924.97;1024862;29;694;-79
2022/09/20 00:45:02;;;;;;;;;;;;;;;15.90;70.05;101923.16;1024098;29;685;-79
2022/09/20 00:45:52;;;;;;;;;;;;;;;15.93;70.22;101930.13;1024923;29;642;-79
2022/09/20 00:46:43;;;;;;;;;;;;;;;15.86;70.17;101928.84;1024868;29;1234;-79
2022/09/20 00:47:33;;;;;;;;;;;;;;;15.90;70.37;101933.03;1024696;29;651;-79
2022/09/20 00:48:23;;;;;;;;;;;;;;;15.92;70.37;101931.09;1024614;29;658;-78
2022/09/20 00:49:14;;;;;;;;;;;;;;;15.89;70.38;101931.31;1021231;28;709;-79
2022/09/20 00:50:04;;;;;;;;;;;;;;;15.88;70.50;101930.44;1020457;29;690;-79
2022/09/20 00:50:55;;;;;;;;;;;;;;;15.84;70.63;101928.06;1020795;29;674;-78
2022/09/20 00:51:45;;;;;;;;;;;;;;;15.87;70.62;101926.03;1020312;29;670;-78
2022/09/20 00:52:36;;;;;;;;;;;;;;;15.89;70.73;101925.94;1025162;28;654;-78
2022/09/20 00:53:26;;;;;;;;;;;;;;;15.82;70.58;101924.63;1024213;29;725;-78
2022/09/20 00:54:16;;;;;;;;;;;;;;;15.85;70.74;101924.44;1020438;29;634;-78
2022/09/20 00:55:07;;;;;;;;;;;;;;;15.85;70.68;101927.97;1020925;29;732;-78
2022/09/20 00:55:57;;;;;;;;;;;;;;;15.85;70.74;101927.97;1020905;29;615;-79
2022/09/20 00:56:48;;;;;;;;;;;;;;;15.83;70.71;101927.22;1021027;29;685;-79
2022/09/20 00:57:38;;;;;;;;;;;;;;;15.82;70.68;101927.31;1021014;29;611;-80
2022/09/20 00:58:29;;;;;;;;;;;;;;;15.81;70.87;101929.16;1020325;29;683;-80
2022/09/20 00:59:19;;;;;;;;;;;;;;;15.79;70.27;101924.84;1020890;29;693;-80
2022/09/20 01:00:09;;;;;;;;;;;;;;;15.81;70.63;101928.28;1021006;29;787;-80
2022/09/20 01:01:00;;;;;;;;;;;;;;;15.74;70.74;101927.88;1020930;29;645;-80
2022/09/20 01:01:50;;;;;;;;;;;;;;;15.79;70.79;101930.22;1020928;29;733;-79
2022/09/20 01:02:41;;;;;;;;;;;;;;;15.83;70.56;101924.53;1020986;29;710;-79
2022/09/20 01:03:32;;;;;;;;;;;;;;;15.83;70.56;101927.22;1020789;29;637;-79
2022/09/20 01:04:22;;;;;;;;;;;;;;;15.83;70.31;101926.34;1020955;29;722;-78
2022/09/20 01:05:12;;;;;;;;;;;;;;;15.87;70.51;101926.03;1020927;29;623;-79
2022/09/20 01:06:03;;;;;;;;;;;;;;;15.86;70.30;101927.00;1021016;29;681;-78
2022/09/20 01:06:53;;;;;;;;;;;;;;;15.86;70.51;101926.16;1020949;29;656;-78
2022/09/20 01:07:44;;;;;;;;;;;;;;;15.86;70.63;101923.47;1020923;29;759;-78
2022/09/20 01:08:34;;;;;;;;;;;;;;;15.79;70.52;101928.38;1020990;29;725;-78
2022/09/20 01:09:24;;;;;;;;;;;;;;;15.82;71.05;101919.25;1020887;29;735;-78
2022/09/20 01:10:15;;;;;;;;;;;;;;;15.83;70.34;101927.22;1020906;29;677;-78
2022/09/20 01:11:05;;;;;;;;;;;;;;;15.84;70.72;101928.94;1020887;29;619;-79
2022/09/20 01:11:56;;;;;;;;;;;;;;;15.89;70.54;101923.25;1020823;29;646;-78
2022/09/20 01:12:46;;;;;;;;;;;;;;;15.84;70.82;101922.69;1020992;29;635;-78
2022/09/20 01:13:37;;;;;;;;;;;;;;;15.85;70.47;101924.44;1020939;29;690;-78
2022/09/20 01:14:27;;;;;;;;;;;;;;;15.87;70.74;101917.13;1020957;29;690;-78
2022/09/20 01:15:18;;;;;;;;;;;;;;;15.86;70.40;101918.94;1020982;29;607;-78
2022/09/20 01:16:08;;;;;;;;;;;;;;;15.82;70.58;101919.25;1020875;29;729;-78
2022/09/20 01:16:58;;;;;;;;;;;;;;;15.80;70.70;101919.38;1025177;28;638;-78
2022/09/20 01:17:49;;;;;;;;;;;;;;;15.81;70.39;101922.91;1024073;29;713;-78
2022/09/20 01:18:39;;;;;;;;;;;;;;;15.78;70.65;101926.66;1020383;29;693;-78
2022/09/20 01:19:30;;;;;;;;;;;;;;;15.82;70.56;101930.88;1020904;29;662;-78
2022/09/20 01:20:21;;;;;;;;;;;;;;;15.85;70.14;101919.91;1020970;29;635;-78
2022/09/20 01:21:11;;;;;;;;;;;;;;;15.86;70.53;101920.78;1020830;29;677;-79
2022/09/20 01:22:02;;;;;;;;;;;;;;;15.87;70.30;101920.66;1020874;29;683;-78
2022/09/20 01:22:52;;;;;;;;;;;;;;;15.88;70.74;101922.38;1020875;29;666;-79
2022/09/20 01:23:43;;;;;;;;;;;;;;;15.88;70.39;101924.22;1020884;29;658;-78
2022/09/20 01:24:33;;;;;;;;;;;;;;;15.85;70.61;101909.16;1020892;29;736;-78
2022/09/20 01:25:24;;;;;;;;;;;;;;;15.86;70.07;101920.78;1020904;29;631;-78
2022/09/20 01:26:14;;;;;;;;;;;;;;;15.86;70.73;101915.41;1020602;29;636;-77
2022/09/20 01:27:05;;;;;;;;;;;;;;;15.87;70.88;101917.13;1020869;29;654;-78
2022/09/20 01:27:55;;;;;;;;;;;;;;;15.89;70.17;101921.41;1020914;29;650;-78
2022/09/20 01:28:46;;;;;;;;;;;;;;;15.88;70.61;101913.47;1020893;29;694;-78
2022/09/20 01:29:37;;;;;;;;;;;;;;;15.87;70.42;101915.28;1020839;29;734;-78
2022/09/20 01:30:27;;;;;;;;;;;;;;;15.87;70.27;101922.50;1020961;29;719;-78
2022/09/20 01:31:18;;;;;;;;;;;;;;;15.87;70.45;101922.50;1021215;29;627;-78
2022/09/20 01:32:08;;;;;;;;;;;;;;;15.87;70.77;101919.81;1021204;29;670;-78
2022/09/20 01:32:59;;;;;;;;;;;;;;;15.89;70.24;101916.03;1021713;29;717;-78
2022/09/20 01:33:49;;;;;;;;;;;;;;;15.86;70.43;101923.47;1021059;29;619;-77
2022/09/20 01:34:40;;;;;;;;;;;;;;;15.82;70.63;101924.63;1021568;29;846;-78
2022/09/20 01:35:30;;;;;;;;;;;;;;;15.82;70.78;101921.94;1021591;29;705;-77
2022/09/20 01:36:22;;;;;;;;;;;;;;;15.84;70.46;101928.06;1021592;29;623;-77
2022/09/20 01:37:12;;;;;;;;;;;;;;;15.84;70.61;101925.38;1021627;29;658;-77
2022/09/20 01:38:02;;;;;;;;;;;;;;;15.84;70.45;101928.06;1021573;29;672;-76
2022/09/20 01:38:53;;;;;;;;;;;;;;;15.83;70.69;101923.66;1021566;29;694;-77
2022/09/20 01:39:43;;;;;;;;;;;;;;;15.77;70.72;101922.25;1021540;29;756;-77
2022/09/20 01:40:34;;;;;;;;;;;;;;;15.79;70.48;101923.00;1021641;29;820;-77
2022/09/20 01:41:24;;;;;;;;;;;;;;;15.77;70.68;101924.09;1021654;29;765;-79
2022/09/20 01:42:15;;;;;;;;;;;;;;;15.80;70.49;101922.06;1021505;29;1911;-79
2022/09/20 01:43:05;;;;;;;;;;;;;;;15.85;70.63;101924.44;1021501;29;646;-78
2022/09/20 01:43:55;;;;;;;;;;;;;;;15.85;70.01;101925.28;1021630;29;565;-78
2022/09/20 01:44:46;;;;;;;;;;;;;;;15.86;70.09;101928.84;1021724;29;674;-78
2022/09/20 01:45:36;;;;;;;;;;;;;;;15.89;70.44;101931.31;1028683;28;1208;-77
2022/09/20 01:46:27;;;;;;;;;;;;;;;15.88;70.35;101922.38;1028477;28;1093;-77
2022/09/20 01:47:17;;;;;;;;;;;;;;;15.84;70.26;101928.06;1025449;28;1115;-77
2022/09/20 01:48:08;;;;;;;;;;;;;;;15.83;70.24;101926.34;1023167;29;1136;-78
2022/09/20 01:48:59;;;;;;;;;;;;;;;15.82;70.49;101922.81;1022022;29;1176;-77
2022/09/20 01:49:49;;;;;;;;;;;;;;;15.76;70.52;101925.09;1023943;29;1152;-77
2022/09/20 01:50:40;;;;;;;;;;;;;;;15.80;69.92;101926.56;1022093;29;1089;-77
2022/09/20 01:51:30;;;;;;;;;;;;;;;15.72;68.78;101926.25;1023626;29;1081;-77
2022/09/20 01:52:21;;;;;;;;;;;;;;;15.70;70.87;101925.50;1024864;29;1180;-77
2022/09/20 01:53:11;;;;;;;;;;;;;;;15.75;70.47;101920.66;1024581;29;1132;-77
2022/09/20 01:54:01;;;;;;;;;;;;;;;15.77;70.46;101921.41;1023505;29;1192;-77
2022/09/20 01:54:52;;;;;;;;;;;;;;;15.80;70.43;101921.19;1023694;29;1085;-77
2022/09/20 01:55:42;;;;;;;;;;;;;;;15.81;70.26;101923.78;1023564;29;1132;-77
2022/09/20 01:56:33;;;;;;;;;;;;;;;15.80;70.43;101913.97;1023787;29;1152;-78
2022/09/20 01:57:23;;;;;;;;;;;;;;;15.80;70.47;101921.19;1020952;29;1080;-77
2022/09/20 01:58:14;;;;;;;;;;;;;;;15.80;70.14;101913.13;1021891;29;1076;-78
2022/09/20 01:59:05;;;;;;;;;;;;;;;15.75;70.26;101917.97;1022725;29;1002;-80
2022/09/20 01:59:56;;;;;;;;;;;;;;;15.77;70.68;101916.88;1024657;29;1260;-79
2022/09/20 02:00:46;;;;;;;;;;;;;;;15.74;70.14;101914.44;1024721;29;1208;-80
2022/09/20 02:01:36;;;;;;;;;;;;;;;15.78;70.41;101917.75;1022830;29;1181;-80
2022/09/20 02:02:27;;;;;;;;;;;;;;;15.76;70.23;101919.72;1025241;29;1894;-79
2022/09/20 02:03:17;;;;;;;;;;;;;;;15.81;70.38;101917.53;1023538;29;1174;-81
2022/09/20 02:04:08;;;;;;;;;;;;;;;15.80;70.22;101911.31;1024248;29;1209;-80
2022/09/20 02:04:58;;;;;;;;;;;;;;;15.83;70.14;101913.78;1023113;29;1205;-77
2022/09/20 02:05:49;;;;;;;;;;;;;;;15.84;70.48;101909.25;1025338;29;1212;-79
2022/09/20 02:06:39;;;;;;;;;;;;;;;15.80;70.20;101921.19;1023261;29;1237;-79
2022/09/20 02:07:29;;;;;;;;;;;;;;;15.73;69.61;101909.16;1025385;29;1224;-78
2022/09/20 02:08:20;;;;;;;;;;;;;;;15.76;70.41;101920.56;1023379;29;1209;-76
2022/09/20 02:09:10;;;;;;;;;;;;;;;15.77;70.24;101919.56;1024551;29;1265;-76
2022/09/20 02:10:01;;;;;;;;;;;;;;;15.78;70.38;101912.38;1025429;28;1312;-79
2022/09/20 02:10:52;;;;;;;;;;;;;;;15.82;70.34;101913.88;1023812;29;1361;-78
2022/09/20 02:11:42;;;;;;;;;;;;;;;15.82;70.11;101920.13;1027118;28;1258;-78
2022/09/20 02:12:33;;;;;;;;;;;;;;;15.85;70.39;101914.53;1029498;28;1340;-79
2022/09/20 02:13:23;;;;;;;;;;;;;;;15.78;70.36;101909.69;1026895;28;1238;-79
2022/09/20 02:14:13;;;;;;;;;;;;;;;15.78;70.56;101923.13;1027560;28;1242;-79
2022/09/20 02:15:04;;;;;;;;;;;;;;;15.72;69.50;101918.19;1026346;28;1272;-80
2022/09/20 02:15:54;;;;;;;;;;;;;;;15.64;70.41;101913.34;1021556;29;1177;-80
2022/09/20 02:16:45;;;;;;;;;;;;;;;15.59;71.02;101913.63;1023915;29;1268;-79
2022/09/20 02:17:35;;;;;;;;;;;;;;;15.62;70.89;101913.44;1024498;28;1260;-79
2022/09/20 02:18:26;;;;;;;;;;;;;;;15.69;70.65;101916.56;1024149;29;1277;-79
2022/09/20 02:19:17;;;;;;;;;;;;;;;15.76;70.23;101915.19;1023566;29;1153;-79
2022/09/20 02:20:08;;;;;;;;;;;;;;;15.79;70.27;101914.09;1024747;29;1225;-79
2022/09/20 02:20:58;;;;;;;;;;;;;;;15.82;70.35;101913.88;1024246;29;1245;-80
2022/09/20 02:21:48;;;;;;;;;;;;;;;15.82;70.52;101921.94;1024241;28;1246;-80
2022/09/20 02:22:39;;;;;;;;;;;;;;;15.83;70.33;101920.97;1022980;28;1240;-80
2022/09/20 02:23:29;;;;;;;;;;;;;;;15.82;69.87;101916.56;1025736;28;1367;-79
2022/09/20 02:24:20;;;;;;;;;;;;;;;15.80;70.47;101919.38;1024954;28;1242;-79
2022/09/20 02:25:10;;;;;;;;;;;;;;;15.83;70.24;101915.59;1027423;28;1302;-79
2022/09/20 02:26:01;;;;;;;;;;;;;;;15.82;70.18;101916.56;1025175;28;1305;-78
2022/09/20 02:26:51;;;;;;;;;;;;;;;15.76;70.36;101915.19;1027400;28;1254;-79
2022/09/20 02:27:41;;;;;;;;;;;;;;;15.76;70.39;101919.72;1025417;28;1358;-79
2022/09/20 02:28:32;;;;;;;;;;;;;;;15.73;70.18;101909.16;1027664;28;1321;-79
2022/09/20 02:29:22;;;;;;;;;;;;;;;15.74;70.54;101916.25;1025541;28;1250;-78
2022/09/20 02:30:13;;;;;;;;;;;;;;;15.78;70.47;101920.44;1027287;28;1250;-78
2022/09/20 02:31:03;;;;;;;;;;;;;;;15.70;70.73;101915.59;1025798;28;1241;-79
2022/09/20 02:31:53;;;;;;;;;;;;;;;15.76;70.83;101919.72;1026677;28;1302;-79
2022/09/20 02:32:44;;;;;;;;;;;;;;;15.73;70.63;101917.22;1026015;28;1234;-78
2022/09/20 02:33:34;;;;;;;;;;;;;;;15.76;70.26;101914.34;1026114;28;1258;-78
2022/09/20 02:34:25;;;;;;;;;;;;;;;15.76;70.53;101920.56;1025344;29;1209;-79
2022/09/20 02:35:15;;;;;;;;;;;;;;;15.73;70.58;101915.41;1023837;29;1237;-79
2022/09/20 02:36:07;;;;;;;;;;;;;;;15.76;70.61;101920.56;1026691;28;1377;-80
2022/09/20 02:36:57;;;;;;;;;;;;;;;15.77;70.39;101916.03;1026639;28;1277;-79
2022/09/20 02:37:47;;;;;;;;;;;;;;;15.78;70.45;101917.75;1024879;28;1290;-79
2022/09/20 02:38:38;;;;;;;;;;;;;;;15.76;70.55;101912.50;1027362;28;1320;-78
2022/09/20 02:39:28;;;;;;;;;;;;;;;15.73;70.43;101919.91;1025692;28;1208;-79
2022/09/20 02:40:19;;;;;;;;;;;;;;;15.75;70.64;101913.47;1026189;28;1305;-79
2022/09/20 02:41:10;;;;;;;;;;;;;;;15.69;70.72;101916.56;1024883;29;1164;-79
2022/09/20 02:42:00;;;;;;;;;;;;;;;15.73;70.51;101919.91;1026231;28;1262;-80
2022/09/20 02:42:50;;;;;;;;;;;;;;;15.70;70.74;101915.59;1021360;29;677;-80
2022/09/20 02:43:41;;;;;;;;;;;;;;;15.73;70.14;101918.09;1019835;29;567;-79
2022/09/20 02:44:31;;;;;;;;;;;;;;;15.70;70.68;101917.44;1019518;29;632;-78
2022/09/20 02:45:22;;;;;;;;;;;;;;;15.72;70.79;101919.06;1020243;29;654;-78
2022/09/20 02:46:13;;;;;;;;;;;;;;;15.78;70.36;101917.75;1020951;29;623;-78
2022/09/20 02:47:03;;;;;;;;;;;;;;;15.78;70.13;101920.44;1023341;29;1295;-78
2022/09/20 02:47:53;;;;;;;;;;;;;;;15.80;70.10;101921.19;1024068;29;631;-78
2022/09/20 02:48:44;;;;;;;;;;;;;;;15.81;70.29;101918.41;1024180;29;694;-78
2022/09/20 02:49:34;;;;;;;;;;;;;;;15.77;70.38;101922.25;1024222;29;659;-77
2022/09/20 02:50:25;;;;;;;;;;;;;;;15.72;70.63;101916.38;1024703;29;653;-79
2022/09/20 02:51:15;;;;;;;;;;;;;;;15.72;70.73;101919.06;1024253;29;642;-79
2022/09/20 02:52:06;;;;;;;;;;;;;;;15.68;70.78;101922.06;1024639;29;650;-78
2022/09/20 02:52:56;;;;;;;;;;;;;;;15.67;70.46;101917.63;1024337;29;725;-79
2022/09/20 02:53:46;;;;;;;;;;;;;;;15.70;70.83;101918.28;1024099;29;631;-79
2022/09/20 02:54:37;;;;;;;;;;;;;;;15.68;70.68;101919.38;1024701;29;658;-79
2022/09/20 02:55:27;;;;;;;;;;;;;;;15.68;71.04;101922.91;1024315;29;644;-79
2022/09/20 02:56:18;;;;;;;;;;;;;;;15.60;70.59;101923.44;1024748;29;685;-78
2022/09/20 02:57:08;;;;;;;;;;;;;;;15.69;70.62;101923.78;1024308;29;627;-78
2022/09/20 02:57:59;;;;;;;;;;;;;;;15.70;70.55;101925.50;1024068;29;650;-79
2022/09/20 02:58:49;;;;;;;;;;;;;;;15.72;70.35;101923.56;1024791;29;740;-79
2022/09/20 02:59:39;;;;;;;;;;;;;;;15.67;70.71;101918.50;1024040;29;605;-79
2022/09/20 03:00:31;;;;;;;;;;;;;;;15.65;71.20;101922.25;1024190;29;578;-79
2022/09/20 03:01:21;;;;;;;;;;;;;;;15.69;70.73;101923.78;1024358;29;650;-79
2022/09/20 03:02:12;;;;;;;;;;;;;;;15.68;70.64;101924.75;1023949;29;1894;-79
2022/09/20 03:03:02;;;;;;;;;;;;;;;15.71;70.39;101921.84;1024144;29;650;-79
2022/09/20 03:03:52;;;;;;;;;;;;;;;15.63;70.29;101915.16;1024035;29;615;-79
2022/09/20 03:04:43;;;;;;;;;;;;;;;15.63;70.49;101914.31;1024090;29;631;-79
2022/09/20 03:05:33;;;;;;;;;;;;;;;15.65;70.50;101916.88;1024337;29;714;-79
2022/09/20 03:06:24;;;;;;;;;;;;;;;15.65;70.70;101916.88;1024082;29;616;-79
2022/09/20 03:07:14;;;;;;;;;;;;;;;15.65;70.72;101922.25;1024707;29;748;-79
2022/09/20 03:08:04;;;;;;;;;;;;;;;15.64;70.84;101916.03;1023987;29;624;-79
2022/09/20 03:08:55;;;;;;;;;;;;;;;15.65;70.74;101914.19;1024123;29;571;-79
2022/09/20 03:09:46;;;;;;;;;;;;;;;15.65;70.48;101916.88;1024279;29;571;-79
2022/09/20 03:10:36;;;;;;;;;;;;;;;15.63;70.72;101917.84;1024185;29;642;-79
2022/09/20 03:11:27;;;;;;;;;;;;;;;15.57;70.77;101918.28;1024071;29;616;-79
2022/09/20 03:12:17;;;;;;;;;;;;;;;15.59;70.98;101918.16;1024226;29;625;-79
2022/09/20 03:13:07;;;;;;;;;;;;;;;15.57;70.94;101918.28;1024068;29;639;-79
2022/09/20 03:13:58;;;;;;;;;;;;;;;15.56;71.03;101908.50;1023647;29;637;-80
2022/09/20 03:14:48;;;;;;;;;;;;;;;15.56;70.69;101915.72;1024670;29;582;-79
2022/09/20 03:15:39;;;;;;;;;;;;;;;15.60;70.71;101919.88;1024153;29;695;-80
2022/09/20 03:16:29;;;;;;;;;;;;;;;15.60;70.74;101915.38;1024318;29;667;-79
2022/09/20 03:17:20;;;;;;;;;;;;;;;15.62;70.75;101912.56;1023973;29;643;-79
2022/09/20 03:18:10;;;;;;;;;;;;;;;15.63;70.78;101919.66;1024145;29;666;-79
2022/09/20 03:19:00;;;;;;;;;;;;;;;15.65;70.67;101919.56;1024507;29;688;-79
2022/09/20 03:19:51;;;;;;;;;;;;;;;15.54;69.89;101923.84;1023993;29;647;-79
2022/09/20 03:20:42;;;;;;;;;;;;;;;15.53;70.85;101922.13;1023882;29;627;-79
2022/09/20 03:21:32;;;;;;;;;;;;;;;15.56;70.89;101923.78;1025221;29;682;-79
2022/09/20 03:22:22;;;;;;;;;;;;;;;15.55;70.80;101922.91;1024153;29;1906;-79
2022/09/20 03:23:13;;;;;;;;;;;;;;;15.50;71.40;101916.09;1024555;29;967;-79
2022/09/20 03:24:04;;;;;;;;;;;;;;;15.53;70.86;101923.94;1024005;29;678;-79
2022/09/20 03:24:55;;;;;;;;;;;;;;;15.52;71.13;101924.91;1023979;29;693;-79
2022/09/20 03:25:46;;;;;;;;;;;;;;;15.57;70.65;101915.59;1024693;29;705;-79
2022/09/20 03:26:39;;;;;;;;;;;;;;;15.61;70.83;101914.41;1024117;29;655;-79
2022/09/20 03:27:30;;;;;;;;;;;;;;;15.63;70.81;101919.66;1024053;29;639;-79
2022/09/20 03:28:20;;;;;;;;;;;;;;;15.58;71.15;101920.00;1023698;29;647;-79
2022/09/20 03:29:11;;;;;;;;;;;;;;;15.62;70.98;101918.81;1023961;29;664;-79
2022/09/20 03:30:01;;;;;;;;;;;;;;;15.68;70.74;101919.38;1024554;29;665;-79
2022/09/20 03:30:52;;;;;;;;;;;;;;;15.67;70.82;101921.19;1023959;29;725;-78
2022/09/20 03:31:42;;;;;;;;;;;;;;;15.66;70.51;101921.28;1024758;29;595;-79
2022/09/20 03:32:32;;;;;;;;;;;;;;;15.62;71.14;101921.50;1023919;29;634;-79
2022/09/20 03:33:23;;;;;;;;;;;;;;;15.70;70.95;101926.34;1024517;29;551;-80
2022/09/20 03:34:13;;;;;;;;;;;;;;;15.70;70.61;101920.13;1024091;29;726;-79
2022/09/20 03:35:05;;;;;;;;;;;;;;;15.67;70.67;101918.50;1024591;29;634;-79
2022/09/20 03:35:55;;;;;;;;;;;;;;;15.65;70.56;101923.13;1024087;29;722;-79
2022/09/20 03:36:46;;;;;;;;;;;;;;;15.68;70.76;101920.22;1023975;29;659;-79
2022/09/20 03:37:36;;;;;;;;;;;;;;;15.71;70.32;101927.22;1024085;29;868;-78
2022/09/20 03:38:26;;;;;;;;;;;;;;;15.60;70.31;101923.44;1024501;29;803;-79
2022/09/20 03:39:17;;;;;;;;;;;;;;;15.52;70.86;101928.44;1023797;29;1206;-78
2022/09/20 03:40:08;;;;;;;;;;;;;;;15.53;70.97;101916.75;1024676;29;709;-79
2022/09/20 03:40:58;;;;;;;;;;;;;;;15.52;70.93;101928.44;1023809;29;696;-79
2022/09/20 03:41:49;;;;;;;;;;;;;;;15.50;71.23;101929.53;1023856;29;725;-78
2022/09/20 03:42:39;;;;;;;;;;;;;;;15.54;70.97;101923.84;1023542;29;1902;-78
2022/09/20 03:43:31;;;;;;;;;;;;;;;15.54;70.71;101925.66;1024595;29;646;-79
2022/09/20 03:44:22;;;;;;;;;;;;;;;15.58;70.83;101917.31;1024522;29;735;-79
2022/09/20 03:45:12;;;;;;;;;;;;;;;15.63;70.76;101925.03;1024120;29;669;-79
2022/09/20 03:46:03;;;;;;;;;;;;;;;15.67;70.33;101923.00;1023815;29;643;-79
2022/09/20 03:46:53;;;;;;;;;;;;;;;15.62;70.77;101918.81;1024558;29;1424;-79
2022/09/20 03:47:43;;;;;;;;;;;;;;;15.62;70.96;101918.81;1024624;29;646;-79
2022/09/20 03:48:35;;;;;;;;;;;;;;;15.57;70.88;101926.34;1024568;29;675;-79
2022/09/20 03:49:26;;;;;;;;;;;;;;;15.57;70.55;101926.34;1023949;29;624;-80
2022/09/20 03:50:16;;;;;;;;;;;;;;;15.59;70.87;101931.59;1023995;29;670;-76
2022/09/20 03:51:07;;;;;;;;;;;;;;;15.60;70.78;101926.13;1023932;29;730;-80
2022/09/20 03:51:57;;;;;;;;;;;;;;;15.60;70.90;101926.13;1024051;29;673;-79
2022/09/20 03:52:48;;;;;;;;;;;;;;;15.65;71.33;101916.88;1023939;29;627;-77
2022/09/20 03:53:39;;;;;;;;;;;;;;;15.66;70.78;101924.84;1024050;29;694;-79
2022/09/20 03:54:30;;;;;;;;;;;;;;;15.66;70.41;101918.59;1023913;29;757;-80
2022/09/20 03:55:21;;;;;;;;;;;;;;;15.68;70.73;101917.53;1024515;29;693;-79
2022/09/20 03:56:11;;;;;;;;;;;;;;;15.66;70.88;101918.59;1024957;29;724;-79
2022/09/20 03:57:02;;;;;;;;;;;;;;;15.65;70.93;101925.81;1023994;29;641;-80
2022/09/20 03:57:52;;;;;;;;;;;;;;;15.60;70.75;101928.81;1024040;29;765;-80
2022/09/20 03:58:43;;;;;;;;;;;;;;;15.66;70.74;101924.84;1023891;29;538;-79
2022/09/20 03:59:33;;;;;;;;;;;;;;;15.64;70.85;101918.72;1024524;29;736;-80
2022/09/20 04:00:24;;;;;;;;;;;;;;;15.63;70.67;101920.53;1023797;29;812;-80
2022/09/20 04:01:14;;;;;;;;;;;;;;;15.60;70.76;101917.19;1024029;29;648;-80
2022/09/20 04:02:04;;;;;;;;;;;;;;;15.57;70.74;101926.34;1023910;29;642;-80
2022/09/20 04:02:55;;;;;;;;;;;;;;;15.58;70.65;101927.22;1023973;29;593;-79
2022/09/20 04:03:45;;;;;;;;;;;;;;;15.56;71.00;101927.31;1024161;29;691;-79
2022/09/20 04:04:36;;;;;;;;;;;;;;;15.62;70.61;101926.00;1023859;29;675;-79
2022/09/20 04:05:26;;;;;;;;;;;;;;;15.61;70.53;101935.03;1024058;29;655;-80
2022/09/20 04:06:17;;;;;;;;;;;;;;;15.71;70.17;101927.22;1023859;29;651;-79
2022/09/20 04:07:07;;;;;;;;;;;;;;;15.65;70.42;101914.19;1024066;29;801;-80
2022/09/20 04:07:58;;;;;;;;;;;;;;;15.60;70.68;101919.88;1023850;29;644;-80
2022/09/20 04:08:48;;;;;;;;;;;;;;;15.54;71.05;101926.53;1023958;29;730;-80
2022/09/20 04:09:39;;;;;;;;;;;;;;;15.60;70.54;101925.25;1023821;29;725;-80
2022/09/20 04:10:29;;;;;;;;;;;;;;;15.61;70.63;101933.22;1025073;28;661;-80
2022/09/20 04:11:19;;;;;;;;;;;;;;;15.61;70.90;101922.47;1024061;29;702;-80
2022/09/20 04:12:10;;;;;;;;;;;;;;;15.58;70.94;101928.06;1023921;29;682;-80
2022/09/20 04:13:00;;;;;;;;;;;;;;;15.55;70.76;101933.66;1024521;29;614;-79
2022/09/20 04:13:51;;;;;;;;;;;;;;;15.50;70.88;101930.38;1024443;29;697;-80
2022/09/20 04:14:41;;;;;;;;;;;;;;;15.46;71.15;101925.31;1023972;29;737;-80
2022/09/20 04:15:32;;;;;;;;;;;;;;;15.52;70.99;101931.13;1023897;29;624;-80
2022/09/20 04:16:22;;;;;;;;;;;;;;;15.62;70.92;101926.88;1023959;29;674;-78
2022/09/20 04:17:13;;;;;;;;;;;;;;;15.60;70.63;101928.81;1023886;29;722;-80
2022/09/20 04:18:03;;;;;;;;;;;;;;;15.59;70.68;101928.91;1023904;29;603;-80
2022/09/20 04:18:55;;;;;;;;;;;;;;;15.63;70.58;101927.72;1024039;29;643;-80
2022/09/20 04:19:46;;;;;;;;;;;;;;;15.62;70.46;101934.06;1024022;29;729;-80
2022/09/20 04:20:37;;;;;;;;;;;;;;;15.61;70.52;101930.53;1023992;29;746;-80
2022/09/20 04:21:28;;;;;;;;;;;;;;;15.61;70.69;101925.16;1023863;29;647;-80
2022/09/20 04:22:18;;;;;;;;;;;;;;;15.60;70.56;101931.50;1023814;29;1898;-78
2022/09/20 04:23:09;;;;;;;;;;;;;;;15.60;70.55;101920.75;1023727;29;639;-79
2022/09/20 04:23:59;;;;;;;;;;;;;;;15.61;70.83;101922.47;1024025;29;651;-79
2022/09/20 04:24:51;;;;;;;;;;;;;;;15.60;70.54;101928.81;1024337;29;639;-79
2022/09/20 04:25:42;;;;;;;;;;;;;;;15.63;70.45;101931.28;1023779;29;894;-79
2022/09/20 04:26:32;;;;;;;;;;;;;;;15.65;70.35;101927.63;1023945;29;694;-79
2022/09/20 04:27:23;;;;;;;;;;;;;;;15.60;70.40;101931.50;1023757;29;679;-78